Carpenter, WY

5:52 AM MST on December 22, 2014 (GMT -0700)
Kimball Municipal-Arraj | Change Station
CLOSE
Current Station
Airport
Location: Kimball,
Elevation: 4925 ft
Nearby Weather Stations
Active Advisory: High Wind Watch

Elev 4925 ft 41.19 °N, 103.68 °W | Updated 17 minutes ago

Partly Cloudy
Partly Cloudy
32 °F
Feels Like 22 °F
N
13
Wind Variable Wind from NW

Today
High -- | Low -- °F
--% Chance of Precip.
Yesterday
High -- | Low -- °F
Precip. -- in
7:19 AM 4:32 PM
New Moon, 0% visible
Pressure 29.69 in
Visibility 7.0 miles
Clouds Scattered Clouds 2000 ft
Mostly Cloudy 5000 ft
Overcast 6000 ft
Windchill 22 °F
Dew Point 30 °F
Humidity 94%
Rainfall 0.00 in
Snow Depth Not available.
UV 0 out of 12
Pollen .10 out of 12
Air Quality Not available.
Flu Activity Not available.
METAR KIBM 221235Z AUTO 31011KT 7SM -SN SCT020 BKN050 OVC060 00/M01 A2969 RMK AO2 T10031011

More Conditions Fewer Conditions

Pressure 29.69 in
Visibility 7.0 miles
Clouds Scattered Clouds 2000 ft
Mostly Cloudy 5000 ft
Overcast 6000 ft
Windchill 22 °F
Dew Point 30 °F
Humidity 94%
Rainfall 0.00 in
Snow Depth Not available.
UV 0 out of 12
Pollen .10 out of 12
Air Quality Not available.
Flu Activity Not available.
METAR KIBM 221235Z AUTO 31011KT 7SM -SN SCT020 BKN050 OVC060 00/M01 A2969 RMK AO2 T10031011

More Conditions Fewer Conditions

Nowcast | as of 4:19 am MST on December 22, 2014

An area of light to moderate snow will continue to move across southeast Wyoming and the southern Nebraska Panhandle this morning. Accumulations should generally be light...but the combination of falling snow and gusty winds could result in locally reduced visibilities. Some roads could become slick and snow covered...making travel hazardous. Exercise caution when traveling this morning and allow extra time to reach your destination.

×

10-Day Weather Forecast

Almanac

Astronomy

Dec. 22, 2014 Rise Set
Actual Time
Civil Twilight
Nautical Twilight
Astronomical Twilight
Moon
Length of Visible Light
Length of Day
Tomorrow will be .
, % of the Moon is Illuminated

Today's Extremes

State Highs State Lows

Community

WunderPhotos

Upload Photos

1,779,598 photos uploaded!

WunderBlogs® & News

Nearby

Air Quality

  Air Quality AQ Index Pollutant
Not available.

Snow Depth

Station Depth Elevation

Earthquake Activity

City Distance Mag. Time & Date
Minimum magnitude displayed is 2.5.

Coastal Water Temperatures

Place Temperature

Nearby Weather Stations